Latest Weather Observations for Coen Airport

IDQ60801

Issued at 6:52 am EST Monday 28 September 2020 (issued every 10 minutes, with the page automatically refreshed every 10 minutes)

About weather observations | Map of weather stations | Latest weather observations for QLD | Other Formats
Station Details ID: 027073 Name: COEN AIRPORT Lat: -13.76 Lon: 143.12 Height: 159.3 m
Data from the previous 72 hours. | See also: Recent months at Coen Airport
Date/Time
EST
Temp
°C
App
Temp
°C
Dew
Point
°C
Rel
Hum
%
Delta-T
°C
Wind Press
QNH
hPa
Press
MSL
hPa
Rain since
9am
mm
Dir  Spd
km/h
Gust
km/h
Spd
kts
Gust
kts
28/06:30am 23.9 22.9 17.6 68 3.9 ENE 19 33 10 18 1013.9 1013.0 0.0
28/06:00am 23.8 22.6 17.1 66 4.2 E 19 35 10 19 1013.7 1012.8 0.0
28/05:30am 23.6 22.9 17.3 67 3.9 E 17 26 9 14 1013.5 1012.6 0.0
28/05:00am 23.5 23.4 17.0 67 4.0 ENE 13 22 7 12 1013.1 1012.2 0.0
28/04:30am 23.6 23.1 16.9 66 4.1 ENE 15 22 8 12 1012.9 1012.0 0.0
28/04:00am 23.6 22.3 17.3 67 3.9 ENE 20 35 11 19 1012.6 1011.7 0.0
28/03:30am 23.7 22.1 17.4 68 3.9 ENE 22 37 12 20 1012.8 1011.9 0.0
28/03:00am 23.9 21.6 17.6 68 3.9 ENE 26 39 14 21 1013.1 1012.2 0.0
28/02:30am 23.8 22.7 17.8 69 3.8 ENE 20 37 11 20 1013.4 1012.5 0.0
28/02:00am 23.6 23.5 17.8 70 3.6 E 15 24 8 13 1013.8 1012.9 0.0
28/01:30am 20.5 22.7 17.5 83 1.9 W 2 9 1 5 1014.2 1013.3 0.0
28/01:00am 20.5 22.0 17.7 84 1.7 WSW 6 9 3 5 1014.3 1013.4 0.0
28/12:30am 20.9 23.6 18.7 87 1.4 SSW 2 9 1 5 1014.6 1013.8 0.0
28/12:00am 19.6 22.2 17.6 88 1.2 CALM 0 0 0 0 1015.0 1014.2 0.0
 
Date/Time
EST
Temp
°C
App
Temp
°C
Dew
Point
°C
Rel
Hum
%
Delta-T
°C
Wind Press
QNH
hPa
Press
MSL
hPa
Rain since
9am
mm
Dir  Spd
km/h
Gust
km/h
Spd
kts
Gust
kts
27/11:30pm 19.1 21.4 16.7 86 1.5 CALM 0 0 0 0 1015.1 1014.3 0.0
27/11:00pm 20.0 22.6 17.6 86 1.5 CALM 0 0 0 0 1015.5 1014.7 0.0
27/10:30pm 20.6 22.9 17.8 84 1.7 ESE 2 9 1 5 1015.7 1014.9 0.0
27/10:00pm 21.0 23.0 17.8 82 2.0 SSW 4 7 2 4 1015.6 1014.8 0.0
27/09:30pm 21.5 23.7 17.5 78 2.5 S 2 7 1 4 1015.6 1014.8 0.0
27/09:00pm 22.8 24.2 18.6 77 2.7 NE 9 17 5 9 1015.3 1014.5 0.0
27/08:30pm 23.5 24.2 18.8 75 3.0 NE 13 17 7 9 1015.1 1014.3 0.0
27/08:00pm 23.9 23.8 18.8 73 3.3 NE 17 24 9 13 1014.7 1013.9 0.0
27/07:30pm 24.1 24.6 18.3 70 3.7 NE 13 20 7 11 1014.5 1013.6 0.0
27/07:00pm 24.7 24.7 18.2 67 4.1 NE 15 24 8 13 1014.2 1013.3 0.0
27/06:30pm 25.7 25.1 17.6 61 5.1 NE 17 26 9 14 1013.9 1013.0 0.0
27/06:00pm 26.7 25.6 17.2 56 6.0 NE 19 28 10 15 1013.6 1012.7 0.0
27/05:30pm 28.3 26.9 15.6 46 7.8 ENE 17 26 9 14 1013.3 1012.4 0.0
27/05:00pm 29.5 27.1 14.5 40 9.1 ENE 20 32 11 17 1013.1 1012.2 0.0
27/04:30pm 30.7 28.8 14.3 36 10.0 ENE 17 30 9 16 1013.1 1012.2 0.0
27/04:00pm 30.8 28.4 14.4 36 10.0 ENE 20 28 11 15 1013.0 1012.1 0.0
27/03:30pm 30.8 28.6 14.8 37 9.8 E 20 28 11 15 1013.1 1012.2 0.0
27/03:00pm 30.9 28.3 14.9 37 9.9 E 22 35 12 19 1013.5 1012.6 0.0
27/02:30pm 30.9 28.4 16.1 41 9.3 E 24 35 13 19 1013.7 1012.8 0.0
27/02:00pm 31.5 29.7 17.0 41 9.2 ENE 22 33 12 18 1013.8 1012.9 0.0
27/01:30pm 30.9 29.3 16.5 42 9.1 ENE 20 33 11 18 1014.1 1013.2 0.0
27/01:00pm 32.0 29.8 15.9 38 10.1 ENE 22 35 12 19 1014.4 1013.5 0.0
27/12:30pm 31.3 29.5 16.9 42 9.2 ENE 22 35 12 19 1014.7 1013.9 0.0
27/12:00pm 31.6 30.1 16.7 40 9.4 E 20 33 11 18 1015.2 1014.4 0.0
27/11:30am 32.3 31.1 17.4 41 9.6 E 20 33 11 18 1015.5 1014.7 0.0
27/11:00am 31.0 30.0 18.0 45 8.4 ENE 20 32 11 17 1015.7 1014.9 0.0
27/10:30am 29.8 28.5 16.9 45 8.2 ENE 19 32 10 17 1015.9 1015.1 0.0
27/10:00am 30.0 29.2 18.1 49 7.7 ENE 19 30 10 16 1016.0 1015.2 0.0
27/09:30am 28.3 27.1 18.4 55 6.4 ENE 22 32 12 17 1015.9 1015.1 0.0
27/09:00am 28.1 27.1 17.9 54 6.5 ENE 20 33 11 18 1015.9 1015.1 0.0
27/08:30am 27.6 26.9 18.3 57 6.0 ENE 19 26 10 14 1015.5 1014.7 0.0
27/08:00am 26.6 26.9 17.9 59 5.5 ENE 13 26 7 14 1015.2 1014.4 0.0
27/07:30am 24.9 26.7 18.4 67 4.1 W 6 9 3 5 1014.8 1014.0 0.0
27/07:00am 23.9 25.9 19.2 75 3.0 NNE 7 11 4 6 1014.3 1013.4 0.0
27/06:30am 22.4 23.9 18.0 76 2.8 NNE 7 11 4 6 1013.9 1013.0 0.0
27/06:00am 23.7 25.0 18.4 72 3.4 ENE 9 15 5 8 1013.6 1012.7 0.0
27/05:30am 22.6 24.2 18.2 76 2.8 NE 7 11 4 6 1013.4 1012.5 0.0
27/05:00am 22.7 24.4 18.5 77 2.7 ENE 7 11 4 6 1013.1 1012.2 0.0
27/04:30am 21.3 23.0 18.1 82 2.0 S 6 9 3 5 1013.0 1012.1 0.0
27/04:00am 21.2 23.6 18.0 82 2.0 SE 2 7 1 4 1012.8 1011.9 0.0
27/03:30am 20.7 23.3 17.5 82 2.0 CALM 0 6 0 3 1012.8 1011.9 0.0
27/03:00am 20.1 22.2 17.3 84 1.7 SE 2 6 1 3 1013.2 1012.3 0.0
27/02:30am 20.7 23.4 17.7 83 1.9 CALM 0 0 0 0 1013.5 1012.6 0.0
27/02:00am 21.2 24.0 18.0 82 2.0 CALM 0 6 0 3 1013.7 1012.8 0.0
27/01:30am 20.9 23.0 17.1 79 2.3 SW 2 11 1 6 1013.6 1012.7 0.0
27/01:00am 21.6 23.3 17.2 76 2.7 SSW 4 9 2 5 1013.8 1012.9 0.0
27/12:30am 22.2 24.8 17.6 75 2.9 CALM 0 0 0 0 1014.0 1013.1 0.0
27/12:00am 23.5 25.2 18.6 74 3.1 N 7 11 4 6 1014.0 1013.1 0.0
 
Date/Time
EST
Temp
°C
App
Temp
°C
Dew
Point
°C
Rel
Hum
%
Delta-T
°C
Wind Press
QNH
hPa
Press
MSL
hPa
Rain since
9am
mm
Dir  Spd
km/h
Gust
km/h
Spd
kts
Gust
kts
26/11:30pm 23.5 25.1 18.2 72 3.3 NE 7 9 4 5 1014.5 1013.6 0.0
26/11:00pm 24.0 24.4 18.2 70 3.7 NE 13 19 7 10 1014.8 1014.0 0.0
26/10:30pm 24.1 24.3 18.5 71 3.6 NE 15 24 8 13 1014.7 1013.9 0.0
26/10:00pm 24.1 25.1 19.4 75 3.0 NE 13 20 7 11 1014.5 1013.6 0.0
26/09:30pm 24.4 25.3 19.2 73 3.3 NE 13 20 7 11 1014.1 1013.2 0.0
26/09:00pm 24.2 24.3 19.1 73 3.3 NNE 17 26 9 14 1013.9 1013.0 0.0
26/08:30pm 24.4 24.9 19.2 73 3.3 NE 15 20 8 11 1013.7 1012.8 0.0
26/08:00pm 24.5 24.7 19.3 73 3.4 NE 17 24 9 13 1013.2 1012.3 0.0
26/07:30pm 24.8 24.3 19.2 71 3.6 NE 20 32 11 17 1012.7 1011.8 0.0
26/07:00pm 25.5 25.7 19.4 69 4.0 NE 17 28 9 15 1012.2 1011.3 0.0
26/06:30pm 26.6 26.9 19.5 65 4.6 NE 17 24 9 13 1011.8 1010.9 0.0
26/06:00pm 28.4 28.5 19.1 57 6.1 NE 17 24 9 13 1011.3 1010.4 0.0
26/05:30pm 30.6 30.7 18.3 47 8.0 ENE 15 24 8 13 1011.0 1010.1 0.0
26/05:00pm 32.0 30.9 16.3 39 9.9 E 17 30 9 16 1011.0 1010.1 0.0
26/04:30pm 32.6 30.7 15.1 34 10.9 E 19 30 10 16 1011.1 1010.2 0.0
26/04:00pm 32.9 31.2 16.3 37 10.5 SE 20 33 11 18 1011.2 1010.3 0.0
26/03:30pm 34.0 33.1 16.8 35 11.0 ESE 17 26 9 14 1011.3 1010.4 0.0
26/03:00pm 34.7 34.2 17.9 37 11.0 SSE 17 30 9 16 1011.3 1010.4 0.0
26/02:30pm 33.5 32.4 17.2 37 10.5 SE 19 30 10 16 1011.5 1010.6 0.0
26/02:00pm 32.1 32.6 18.3 44 9.0 ESE 13 20 7 11 1011.6 1010.7 0.0
26/01:30pm 32.9 34.1 18.3 42 9.5 E 9 19 5 10 1012.0 1011.1 0.0
26/01:00pm 34.3 36.5 19.5 41 9.8 ENE 7 17 4 9 1012.6 1011.7 0.0
26/12:30pm 31.9 32.6 18.8 45 8.6 NNE 13 20 7 11 1013.2 1012.3 0.0
26/12:00pm 33.9 35.7 19.6 43 9.5 W 9 20 5 11 1013.7 1012.8 0.0
26/11:30am 31.6 32.4 18.2 44 8.7 E 11 24 6 13 1014.3 1013.4 0.0
26/11:00am 31.8 32.4 18.7 45 8.6 E 13 20 7 11 1015.0 1014.2 0.0
26/10:30am 30.7 30.8 19.1 50 7.6 NNE 17 28 9 15 1015.3 1014.5 0.0
26/10:00am 30.0 30.2 19.4 53 6.9 NNE 17 26 9 14 1015.4 1014.6 0.0
26/09:30am 28.2 29.1 19.2 58 5.9 NNE 13 19 7 10 1015.6 1014.8 0.0
26/09:00am 28.1 29.9 19.6 60 5.6 ESE 9 13 5 7 1015.5 1014.7 0.0
26/08:30am 26.6 28.2 20.0 67 4.3 ENE 11 19 6 10 1015.4 1014.6 0.0
26/08:00am 25.7 27.6 19.8 70 3.8 ENE 9 15 5 8 1015.0 1014.2 0.0
26/07:30am 23.7 25.7 20.0 80 2.4 NE 9 13 5 7 1014.6 1013.8 0.0
26/07:00am 20.8 23.9 18.7 88 1.3 CALM 0 0 0 0 1014.3 1013.4 0.0
26/06:30am 19.4 21.9 17.2 87 1.3 CALM 0 0 0 0 1013.8 1012.9 0.0
26/06:00am 19.6 22.2 17.4 87 1.4 CALM 0 0 0 0 1013.4 1012.5 0.0
26/05:30am 20.3 22.2 17.7 85 1.6 SE 4 7 2 4 1013.2 1012.3 0.0
26/05:00am 21.2 23.9 17.8 81 2.1 CALM 0 0 0 0 1013.0 1012.1 0.0
26/04:30am 21.9 24.8 18.1 79 2.4 CALM 0 0 0 0 1013.0 1012.1 0.0
26/04:00am 22.4 24.1 18.4 78 2.5 E 7 11 4 6 1012.9 1012.0 0.0
26/03:30am 22.3 25.5 18.9 81 2.2 CALM 0 0 0 0 1013.0 1012.1 0.0
26/03:00am 22.3 25.5 18.9 81 2.2 CALM 0 0 0 0 1013.0 1012.1 0.0
26/02:30am 22.5 25.8 19.1 81 2.2 CALM 0 0 0 0 1013.3 1012.4 0.0
26/02:00am 22.4 25.7 19.2 82 2.0 CALM 0 0 0 0 1013.6 1012.7 0.0
26/01:30am 22.4 25.3 19.0 81 2.2 ESE 2 7 1 4 1014.0 1013.1 0.0
26/01:00am 22.7 24.8 19.3 81 2.2 SSW 7 9 4 5 1014.1 1013.2 0.0
26/12:30am 22.4 24.8 19.6 84 1.8 SSE 6 9 3 5 1014.0 1013.1 0.0
26/12:00am 22.2 24.9 19.4 84 1.8 ESE 4 7 2 4 1014.1 1013.2 0.0
 
Date/Time
EST
Temp
°C
App
Temp
°C
Dew
Point
°C
Rel
Hum
%
Delta-T
°C
Wind Press
QNH
hPa
Press
MSL
hPa
Rain since
9am
mm
Dir  Spd
km/h
Gust
km/h
Spd
kts
Gust
kts
25/11:30pm 22.6 24.8 19.6 83 1.9 N 7 9 4 5 1014.1 1013.2 0.0
25/11:00pm 23.0 24.2 19.8 82 2.1 N 13 15 7 8 1013.9 1013.0 0.0
25/10:30pm 23.2 24.0 19.8 81 2.2 NNW 15 19 8 10 1013.8 1012.9 0.0
25/10:00pm 23.3 25.1 19.5 79 2.4 NW 9 13 5 7 1013.8 1012.9 0.0
25/09:30pm 23.5 24.2 19.6 79 2.5 NE 15 24 8 13 1013.1 1012.2 0.0
25/09:00pm 23.5 23.4 19.6 79 2.5 NE 19 30 10 16 1012.9 1012.0 0.0
25/08:30pm 23.6 23.9 19.5 78 2.6 NE 17 28 9 15 1012.9 1012.0 0.0
25/08:00pm 23.8 23.6 19.3 76 2.9 NNE 19 24 10 13 1012.7 1011.8 0.0
25/07:30pm 24.1 23.9 19.4 75 3.0 NNE 19 26 10 14 1012.6 1011.7 0.0
25/07:00pm 24.7 24.8 19.1 71 3.6 NE 17 26 9 14 1012.3 1011.4 0.0
25/06:30pm 25.6 24.8 18.5 65 4.5 NNE 20 28 11 15 1011.7 1010.8 0.0
25/06:00pm 26.9 25.9 17.9 57 5.7 NE 20 33 11 18 1011.4 1010.5 0.0
25/05:30pm 28.4 26.6 16.0 47 7.7 NE 20 37 11 20 1011.0 1010.1 0.0
25/05:00pm 29.8 28.4 16.9 45 8.2 NE 20 28 11 15 1011.0 1010.1 0.0
25/04:30pm 30.8 28.9 16.8 43 8.9 NE 22 35 12 19 1010.7 1009.8 0.0
25/04:00pm 32.0 29.6 16.3 39 9.9 NE 24 35 13 19 1010.4 1009.6 0.0
25/03:30pm 32.0 30.2 15.9 38 10.1 NE 20 33 11 18 1010.3 1009.5 0.0
25/03:00pm 32.8 31.5 15.8 36 10.7 NNE 17 26 9 14 1010.4 1009.6 0.0
25/02:30pm 33.0 31.7 15.9 35 10.8 NE 17 26 9 14 1010.8 1009.9 0.0
25/02:00pm 31.9 29.6 15.8 38 10.1 NE 22 32 12 17 1010.9 1010.0 0.0
25/01:30pm 33.6 32.3 16.9 37 10.7 NNE 19 30 10 16 1011.3 1010.4 0.0
25/01:00pm 32.4 31.1 15.8 36 10.4 NE 17 26 9 14 1011.8 1010.9 0.0
25/12:30pm 31.9 30.3 15.0 36 10.5 NE 17 28 9 15 1012.2 1011.3 0.0
25/12:00pm 32.2 31.3 16.9 40 9.8 ENE 17 24 9 13 1012.5 1011.6 0.0
25/11:30am 31.6 30.4 17.5 43 9.0 NE 20 32 11 17 1012.9 1012.0 0.0
25/11:00am 31.1 30.0 17.4 44 8.8 NNE 19 30 10 16 1013.5 1012.6 0.0
25/10:30am 30.0 30.5 18.4 49 7.5 NE 13 24 7 13 1013.8 1012.9 0.0
25/10:00am 29.7 30.4 18.8 52 7.1 NE 13 24 7 13 1014.3 1013.4 0.0
25/09:30am 27.7 28.8 18.1 56 6.1 NE 9 20 5 11 1014.5 1013.6 0.0
25/09:00am 26.3 27.7 17.9 60 5.3 NNE 7 17 4 9 1014.4 1013.5 0.0
25/08:30am 24.9 26.4 18.1 66 4.3 N 7 11 4 6 1014.4 1013.5 0.0
25/08:00am 23.6 26.3 17.8 70 3.6 CALM 0 0 0 0 1014.3 1013.4 0.0
25/07:30am 21.5 24.2 17.7 79 2.4 CALM 0 0 0 0 1014.1 1013.2 0.0
25/07:00am 18.8 20.6 17.3 91 0.9 S 4 7 2 4 1013.9 1013.0 0.0

Other formats

Comma delimited format used in spreadsheet applications
http://www.bom.gov.au/fwo/IDQ60801/IDQ60801.94183.axf

JavaScript Object Notation format (JSON) in row-major order
http://www.bom.gov.au/fwo/IDQ60801/IDQ60801.94183.json

Data quality

Most of these data are generated automatically and are frequently updated. Quality checks on data are not normally performed. It is possible for incorrect values to appear. Refer to information at About Latest Weather Observations and please check the disclaimer before using these data.